Historyczne dane pomiarowe

Dodano dane terminowe – wersja testowa.

Dane z okresu 1951-2019

Wersja bazy: 1.34 [2019-03-16, lista zmian], aktualizacja planowana na 2019-04-15

Dane meteo z obszaru Polski uzyskane na podstawie danych udostępnionych przez Instytut Meteorologii i Gospodarki Wodnej – Państwowy Instytut Badawczy.

 

Wybierz Datę:    

       

TemperaturaWilgotnośćWiatrCiśnienieOpadyŚniegCzas trwania zjawisk
 Stacja t tx tn tng RH VA  wxwx mslp ppp RRR   cm mm wxwxwxwxwxwxwx
1987-08-14 12.9 20.8 5.8 2.6 77.5- 6.0 2.0---- 1.8------------
1987-08-13 12.0 18.3 5.2 2.0 74.5- 5.7 1.3---- 0.0------------
1987-08-12 11.2 15.7 5.6 2.1 76.8- 5.7 2.3---- 0.2------------
1987-08-11 13.3 15.7 11.4 9.3 73.0- 6.0 3.3---- 0.0------------
1987-08-10 14.5 19.8 11.8 10.8 78.8- 7.0 1.3---- 8.1------------
1987-08-09 15.8 23.2 7.8 4.1 60.5- 3.0 1.3---- 0.0------------
1987-08-08 13.5 19.2 8.0 6.4 68.8- 1.3 1.0---- 0.0------------
1987-08-07 11.3 15.8 4.2 1.5 67.3- 6.0 2.7---- 0.0------------
1987-08-06 9.6 14.4 7.6 7.2 85.0- 7.3 3.7---- 6.0------------
1987-08-05 11.5 15.7 8.4 6.4 83.5- 8.0 1.0---- 0.7------------
1987-08-04 13.8 19.2 10.7 7.4 85.8- 7.3 1.3---- 0.4------------
1987-08-03 14.6 19.4 10.4 8.1 77.3- 5.0 1.3---- 0.0------------
1987-08-02 14.2 18.4 12.2 10.8 73.0- 6.7 2.3---- 7.8------------
1987-08-01 14.7 22.2 6.6 3.8 73.5- 4.7 2.3---- 0.6------------
1987-07-31 15.3 20.3 12.3 10.2 84.8- 8.0 1.7---- 7.3------------
1987-07-30 17.1 23.2 12.1 9.9 71.3- 2.0 1.7---- 0.0------------
1987-07-29 13.1 18.9 6.3 3.6 68.8- 6.0 2.3---- 0.0------------
1987-07-28 13.1 16.4 10.4 9.5 75.0- 7.7 3.0---- 3.1------------
1987-07-27 12.1 17.1 8.0 5.8 65.0- 5.0 5.0---- 0.0------------
1987-07-26 13.1 20.1 10.0 9.5 94.0- 8.0 3.0---- 11.4------------
1987-07-25 18.9 24.7 13.1 11.5 83.8- 4.3 1.7---- 0.0------------
1987-07-24 20.2 27.7 16.0 13.3 82.0- 4.7 1.7---- 11.4------------
1987-07-23 21.0 26.7 13.7 10.5 78.8- 2.3 1.7---- 0.8------------
1987-07-22 19.3 24.4 15.0 11.8 78.0- 6.0 2.0---- 0.0------------
1987-07-21 20.6 26.4 13.3 10.1 74.0- 4.0 2.0---- 0.0------------
1987-07-20 21.2 24.9 17.0 15.4 76.0- 3.7 3.0---- 0.0------------
1987-07-19 23.8 30.5 17.3 13.8 73.0- 6.3 2.3---- 1.0------------
1987-07-18 23.9 29.9 15.7 12.4 66.0- 3.0 1.3---- 0.0------------
1987-07-17 21.8 29.1 16.8 13.7 69.5- 6.3 2.7---- 0.0------------
1987-07-16 19.5 26.8 12.5 9.5 75.5- 5.7 1.7---- 0.0------------
1987-07-15 15.9 22.1 8.6 5.2 73.0- 1.3 3.0---- 0.0------------
1987-07-14 16.5 21.4 11.3 7.3 66.0- 2.3 1.7---- 0.0------------
1987-07-13 18.8 25.4 14.3 11.5 76.8- 4.0 1.3---- 0.0------------
1987-07-12 21.2 28.4 12.7 8.1 56.8- 2.3 4.3---- 8.2------------
1987-07-11 16.3 24.3 7.4 4.7 70.8- 1.3 0.7---- 0.0------------
1987-07-10 14.5 19.2 9.6 5.8 70.8- 3.3 3.3---- 0.0------------
1987-07-09 16.6 24.7 13.9 9.2 89.8- 7.7 1.0---- 7.7------------
1987-07-08 21.2 28.8 12.1 8.0 56.8- 0.0 2.3---- 0.0------------
1987-07-07 17.5 25.5 9.0 4.7 62.3- 0.0 2.3---- 0.0------------
1987-07-06 16.5 21.8 8.2 4.7 65.5- 0.7 1.7---- 0.0------------
1987-07-05 14.5 18.4 12.6 9.9 82.5- 6.3 2.3---- 0.0------------
1987-07-04 17.7 22.7 12.8 9.4 81.3- 7.7 0.7---- 1.9------------
1987-07-03 17.7 21.4 14.7 13.7 78.0- 8.0 1.0---- 0.0------------
1987-07-02 19.0 26.4 16.5 13.7 89.5- 8.0 3.0---- 0.0------------
1987-07-01 24.9 30.6 17.2 13.7 75.0- 3.3 1.3---- 0.0------------
1987-06-30 22.0 28.9 14.1 10.4 73.5- 0.7 2.3---- 0.0------------
1987-06-29 20.6 25.2 16.4 12.7 75.0- 3.0 1.7---- 0.0------------
1987-06-28 18.8 24.4 13.0 10.3 73.8- 3.3 1.7---- 0.0------------
1987-06-27 17.7 21.4 14.4 9.9 78.8- 7.3 2.7---- 18.6------------
1987-06-26 16.3 23.4 6.6 2.6 66.0- 4.0 3.3---- 0.0------------
1987-06-25 14.2 17.2 12.2 9.8 78.0- 7.0 3.0---- 0.0------------
1987-06-24 15.1 20.9 10.8 7.3 74.0- 6.7 2.7---- 0.3------------
1987-06-23 15.2 20.2 12.3 11.3 79.3- 7.0 2.3---- 0.0------------
1987-06-22 14.0 20.4 11.2 8.5 91.3- 8.0 2.0---- 1.7------------
1987-06-21 16.4 23.3 9.1 5.7 70.0- 5.3 1.7---- 0.0------------
1987-06-20 14.8 21.0 6.6 3.8 63.3- 4.0 2.7---- 0.0------------
1987-06-19 11.7 17.0 5.7 2.9 73.8- 3.3 2.3---- 0.8------------
1987-06-18 10.8 16.6 4.8 2.5 72.0- 5.3 4.0---- 1.1------------
1987-06-17 10.0 13.6 6.4 3.9 79.0- 7.3 3.3---- 1.3------------
1987-06-16 13.4 22.7 10.3 9.9 84.3- 8.0 3.0---- 2.3------------
505.1 ms

 

Źródłem pochodzenia danych jest Instytut Meteorologii i Gospodarki Wodnej – Państwowy Instytut Badawczy. Dane Instytutu Meteorologii i Gospodarki Wodnej – Państwowego Instytutu Badawczego zostały przetworzone.

Dane źródłowe można odnaleźć na stronie https://dane.imgw.pl